Time;durP1;ratioP1;P1;durP2;ratioP2;P2;SDS_P1;SDS_P2;PMS_P1;PMS_P2;Temp;Humidity;BMP_temperature;BMP_pressure;BME280_temperature;BME280_humidity;BME280_pressure;Samples;Min_cycle;Max_cycle;Signal;HPM_P1;HPM_P2
2023/04/19 00:01:20;;;;;;;17.67;12.30;;;13.50;99.90;;;;;;5003786;28;20456;-66
2023/04/19 00:03:45;;;;;;;16.13;12.40;;;13.50;99.90;;;;;;5004992;28;20234;-66
2023/04/19 00:06:13;;;;;;;17.10;12.97;;;13.40;99.90;;;;;;5006638;28;20471;-66
2023/04/19 00:08:40;;;;;;;15.90;12.20;;;13.50;99.90;;;;;;5005206;28;20173;-66
2023/04/19 00:11:07;;;;;;;16.60;12.30;;;13.50;99.90;;;;;;5002241;28;20972;-66
2023/04/19 00:13:33;;;;;;;19.70;14.07;;;13.50;99.90;;;;;;5005303;28;20470;-66
2023/04/19 00:15:58;;;;;;;18.77;13.53;;;13.40;99.90;;;;;;5004232;28;20467;-66
2023/04/19 00:18:24;;;;;;;15.23;12.47;;;13.50;99.90;;;;;;5007018;28;20225;-66
2023/04/19 00:20:50;;;;;;;15.90;12.80;;;13.50;99.90;;;;;;5004868;28;20215;-66
2023/04/19 00:23:15;;;;;;;15.43;11.77;;;13.50;99.90;;;;;;5001001;28;20185;-66
2023/04/19 00:25:41;;;;;;;18.17;12.73;;;13.40;99.90;;;;;;5003763;28;20299;-66
2023/04/19 00:28:06;;;;;;;14.80;11.70;;;13.40;99.90;;;;;;5004735;28;20177;-66
2023/04/19 00:30:32;;;;;;;13.17;11.77;;;13.40;99.90;;;;;;5005235;28;20219;-66
2023/04/19 00:32:58;;;;;;;20.63;13.67;;;13.40;99.90;;;;;;5001619;28;20394;-66
2023/04/19 00:35:23;;;;;;;14.27;12.10;;;13.40;99.90;;;;;;5003175;28;20264;-66
2023/04/19 00:37:49;;;;;;;15.20;11.80;;;13.40;99.90;;;;;;5001695;28;20193;-66
2023/04/19 00:40:14;;;;;;;17.00;12.50;;;13.40;99.90;;;;;;5005504;28;20284;-66
2023/04/19 00:42:41;;;;;;;16.07;12.23;;;13.40;99.90;;;;;;5003274;28;20236;-66
2023/04/19 00:45:07;;;;;;;15.63;12.13;;;13.30;99.90;;;;;;5003654;28;20619;-66
2023/04/19 00:47:33;;;;;;;15.10;12.10;;;13.30;99.90;;;;;;5002257;28;20520;-66
2023/04/19 00:49:59;;;;;;;16.60;12.73;;;13.30;99.90;;;;;;5003644;28;20455;-67
2023/04/19 00:52:25;;;;;;;14.07;11.80;;;13.30;99.90;;;;;;5003821;28;20428;-66
2023/04/19 00:54:52;;;;;;;16.60;12.10;;;13.30;99.90;;;;;;5004022;28;20213;-66
2023/04/19 00:57:18;;;;;;;17.40;11.70;;;13.30;99.90;;;;;;5002245;28;20181;-66
2023/04/19 00:59:43;;;;;;;15.30;12.07;;;13.20;99.90;;;;;;5002592;28;20444;-66
2023/04/19 01:02:09;;;;;;;15.10;11.93;;;13.20;99.90;;;;;;5003169;28;20446;-66
2023/04/19 01:04:35;;;;;;;14.23;11.50;;;13.20;99.90;;;;;;5003184;28;20692;-66
2023/04/19 01:07:01;;;;;;;15.83;12.50;;;13.20;99.90;;;;;;5002008;28;20182;-66
2023/04/19 01:09:27;;;;;;;25.30;16.50;;;13.20;99.90;;;;;;5004776;28;20437;-66
2023/04/19 01:11:53;;;;;;;18.23;13.57;;;13.20;99.90;;;;;;4998827;28;20459;-67
2023/04/19 01:14:18;;;;;;;14.23;12.30;;;13.20;99.90;;;;;;5002501;28;20247;-66
2023/04/19 01:16:44;;;;;;;15.63;11.93;;;13.20;99.90;;;;;;5003888;28;20200;-66
2023/04/19 01:19:11;;;;;;;15.00;12.00;;;13.20;99.90;;;;;;5006134;28;20182;-66
2023/04/19 01:21:38;;;;;;;17.97;13.23;;;13.10;99.90;;;;;;4997333;28;20209;-66
2023/04/19 01:24:04;;;;;;;15.13;12.07;;;13.10;99.90;;;;;;5001885;28;20452;-66
2023/04/19 01:26:29;;;;;;;17.80;12.87;;;13.10;99.90;;;;;;4999087;28;20553;-66
2023/04/19 01:28:55;;;;;;;15.10;12.20;;;13.10;99.90;;;;;;5002818;28;20195;-66
2023/04/19 01:31:20;;;;;;;17.47;12.90;;;13.10;99.90;;;;;;5002840;28;20283;-66
2023/04/19 01:33:46;;;;;;;18.60;13.97;;;13.10;99.90;;;;;;4997828;28;20189;-66
2023/04/19 01:36:12;;;;;;;14.83;12.73;;;13.10;99.90;;;;;;5003511;28;20730;-66
2023/04/19 01:38:37;;;;;;;17.07;13.33;;;13.10;99.90;;;;;;5002355;28;20185;-66
2023/04/19 01:41:03;;;;;;;16.73;12.67;;;13.10;99.90;;;;;;4986221;28;20241;-66
2023/04/19 01:43:28;;;;;;;19.70;12.57;;;13.00;99.90;;;;;;4993033;28;20181;-66
2023/04/19 01:45:54;;;;;;;15.90;13.30;;;13.00;99.90;;;;;;4999755;28;20201;-66
2023/04/19 01:48:20;;;;;;;14.90;13.03;;;13.00;99.90;;;;;;5000718;28;20185;-66
2023/04/19 01:50:45;;;;;;;15.80;13.53;;;13.00;99.90;;;;;;4998436;28;20216;-66
2023/04/19 01:53:11;;;;;;;15.20;12.77;;;13.00;99.90;;;;;;5003584;28;20184;-66
2023/04/19 01:55:37;;;;;;;17.30;13.13;;;13.00;99.90;;;;;;5003531;28;20268;-66
2023/04/19 01:58:02;;;;;;;17.70;13.13;;;13.00;99.90;;;;;;5000707;28;20185;-65
2023/04/19 02:00:28;;;;;;;15.70;12.10;;;13.00;99.90;;;;;;4999463;28;20463;-66
2023/04/19 02:02:54;;;;;;;19.73;13.87;;;13.00;99.90;;;;;;5001976;28;20185;-66
2023/04/19 02:05:19;;;;;;;22.43;12.33;;;12.90;99.90;;;;;;5017410;28;20284;-65
2023/04/19 02:07:45;;;;;;;16.53;13.50;;;12.90;99.90;;;;;;5001890;28;20654;-66
2023/04/19 02:10:11;;;;;;;16.40;13.23;;;12.90;99.90;;;;;;5001787;28;20464;-66
2023/04/19 02:12:36;;;;;;;15.37;12.77;;;12.90;99.90;;;;;;5015667;28;20189;-66
2023/04/19 02:15:02;;;;;;;17.27;13.90;;;12.90;99.90;;;;;;4999434;28;20242;-65
2023/04/19 02:17:28;;;;;;;16.80;13.07;;;12.90;99.90;;;;;;4999391;28;20276;-65
2023/04/19 02:19:54;;;;;;;18.17;13.53;;;12.90;99.90;;;;;;5002349;28;20439;-65
2023/04/19 02:22:20;;;;;;;18.13;13.80;;;12.90;99.90;;;;;;5000020;28;20436;-65
2023/04/19 02:24:46;;;;;;;15.90;12.50;;;12.90;99.90;;;;;;5002388;28;20208;-65
2023/04/19 02:27:12;;;;;;;16.40;12.73;;;12.90;99.90;;;;;;5002590;28;20264;-66
2023/04/19 02:29:38;;;;;;;17.80;12.33;;;12.90;99.90;;;;;;5000491;28;20534;-66
2023/04/19 02:32:05;;;;;;;17.80;12.60;;;12.80;99.90;;;;;;5001865;28;20173;-66
2023/04/19 02:34:31;;;;;;;19.70;13.63;;;12.80;99.90;;;;;;5003818;28;20842;-66
2023/04/19 02:36:57;;;;;;;16.77;11.93;;;12.80;99.90;;;;;;4999868;28;20976;-65
2023/04/19 02:39:22;;;;;;;19.20;13.07;;;12.80;99.90;;;;;;5000062;28;20432;-65
2023/04/19 02:41:48;;;;;;;14.97;12.67;;;12.80;99.90;;;;;;5000290;28;20196;-65
2023/04/19 02:44:14;;;;;;;18.80;13.13;;;12.80;99.90;;;;;;5002663;28;20192;-66
2023/04/19 02:46:40;;;;;;;16.40;12.73;;;12.80;99.90;;;;;;5001950;28;20475;-66
2023/04/19 02:49:05;;;;;;;15.97;12.97;;;12.80;99.90;;;;;;4997901;28;20628;-66
2023/04/19 02:51:31;;;;;;;20.03;12.67;;;12.80;99.90;;;;;;5002465;28;20236;-66
2023/04/19 02:53:56;;;;;;;15.97;11.70;;;12.80;99.90;;;;;;5000987;28;20568;-66
2023/04/19 02:56:22;;;;;;;14.90;12.43;;;12.80;99.90;;;;;;5002118;28;21248;-66
2023/04/19 02:58:47;;;;;;;16.30;12.10;;;12.80;99.90;;;;;;5002221;28;20232;-67
2023/04/19 03:01:13;;;;;;;18.30;12.67;;;12.80;99.90;;;;;;5002242;28;20678;-66
2023/04/19 03:03:38;;;;;;;16.80;12.83;;;12.70;99.90;;;;;;4998420;28;20837;-66
2023/04/19 03:06:04;;;;;;;16.23;13.50;;;12.70;99.90;;;;;;4999085;28;20204;-66
2023/04/19 03:08:30;;;;;;;14.90;12.17;;;12.80;99.90;;;;;;4999545;28;20671;-66
2023/04/19 03:10:55;;;;;;;16.23;12.63;;;12.70;99.90;;;;;;4999808;28;20695;-66
2023/04/19 03:13:21;;;;;;;16.43;12.60;;;12.80;99.90;;;;;;4998939;28;20307;-66
2023/04/19 03:15:47;;;;;;;17.43;13.30;;;12.70;99.90;;;;;;4998321;28;20883;-66
2023/04/19 03:18:12;;;;;;;16.30;12.97;;;12.70;99.90;;;;;;4998093;28;20185;-66
2023/04/19 03:20:38;;;;;;;18.10;13.20;;;12.70;99.90;;;;;;4998031;28;20468;-66
2023/04/19 03:23:04;;;;;;;15.83;12.40;;;12.70;99.90;;;;;;5001038;28;20251;-66
2023/04/19 03:25:29;;;;;;;15.33;12.67;;;12.70;99.90;;;;;;4998827;28;20243;-66
2023/04/19 03:27:55;;;;;;;15.70;12.13;;;12.70;99.90;;;;;;5007674;28;20624;-66
2023/04/19 03:30:21;;;;;;;15.23;12.10;;;12.70;99.90;;;;;;5008295;28;21216;-66
2023/04/19 03:32:47;;;;;;;16.07;12.67;;;12.70;99.90;;;;;;5005132;28;21794;-66
2023/04/19 03:35:12;;;;;;;17.10;12.40;;;12.70;99.90;;;;;;5006466;28;20748;-66
2023/04/19 03:37:38;;;;;;;17.33;12.27;;;12.70;99.90;;;;;;5006223;28;20959;-66
2023/04/19 03:40:04;;;;;;;13.43;11.40;;;12.70;99.90;;;;;;5003200;28;20215;-66
2023/04/19 03:42:30;;;;;;;16.37;12.07;;;12.70;99.90;;;;;;5002764;28;20189;-66
2023/04/19 03:44:55;;;;;;;17.13;11.97;;;12.70;99.90;;;;;;5003582;28;20463;-66
2023/04/19 03:47:21;;;;;;;16.63;12.20;;;12.70;99.90;;;;;;5004386;28;20679;-66
2023/04/19 03:49:47;;;;;;;16.77;11.40;;;12.70;99.90;;;;;;5002739;28;20185;-66
2023/04/19 03:52:13;;;;;;;13.13;11.47;;;12.70;99.90;;;;;;5004386;28;20169;-66
2023/04/19 03:54:38;;;;;;;13.50;11.43;;;12.70;99.90;;;;;;5003009;28;20502;-66
2023/04/19 03:57:04;;;;;;;12.93;11.50;;;12.70;99.90;;;;;;5007533;28;20256;-66
2023/04/19 03:59:30;;;;;;;14.67;12.80;;;12.70;99.90;;;;;;5005661;28;20268;-66
2023/04/19 04:01:55;;;;;;;12.97;11.00;;;12.70;99.90;;;;;;5004989;28;20574;-66
2023/04/19 04:04:21;;;;;;;15.33;11.97;;;12.70;99.90;;;;;;5007685;28;20191;-66
2023/04/19 04:06:47;;;;;;;16.87;12.50;;;12.60;99.90;;;;;;5005470;28;20216;-66
2023/04/19 04:09:12;;;;;;;15.47;11.07;;;12.60;99.90;;;;;;5008602;28;20183;-66
2023/04/19 04:11:38;;;;;;;13.47;10.90;;;12.60;99.90;;;;;;5004428;28;20308;-66
2023/04/19 04:14:03;;;;;;;14.40;12.07;;;12.60;99.90;;;;;;5004761;28;20177;-66
2023/04/19 04:16:29;;;;;;;15.87;12.10;;;12.50;99.90;;;;;;5004522;28;20189;-66
2023/04/19 04:18:55;;;;;;;14.40;10.67;;;12.60;99.90;;;;;;5005039;28;20200;-66
2023/04/19 04:21:21;;;;;;;13.83;11.70;;;12.60;99.90;;;;;;5007254;28;20212;-66
2023/04/19 04:23:48;;;;;;;15.90;10.50;;;12.60;99.90;;;;;;5003468;28;20687;-66
2023/04/19 04:26:14;;;;;;;14.93;11.57;;;12.60;99.90;;;;;;5004791;28;20948;-66
2023/04/19 04:28:40;;;;;;;13.77;11.60;;;12.50;99.90;;;;;;5006669;28;20436;-66
2023/04/19 04:31:05;;;;;;;14.50;10.90;;;12.50;99.90;;;;;;5004198;28;20228;-66
2023/04/19 04:33:31;;;;;;;13.63;11.63;;;12.60;99.90;;;;;;5006124;28;20184;-66
2023/04/19 04:35:57;;;;;;;12.30;10.80;;;12.60;99.90;;;;;;5006713;28;20196;-66
2023/04/19 04:38:23;;;;;;;12.73;11.07;;;12.50;99.90;;;;;;5004910;28;20202;-66
2023/04/19 04:40:54;;;;;;;14.17;11.17;;;12.50;99.90;;;;;;5001872;28;20986;-66
2023/04/19 04:43:20;;;;;;;12.50;11.03;;;12.50;99.90;;;;;;5002857;28;20439;-66
2023/04/19 04:45:46;;;;;;;16.80;11.83;;;12.50;99.90;;;;;;5003098;28;20534;-66
2023/04/19 04:48:12;;;;;;;14.20;11.63;;;12.50;99.90;;;;;;4999710;28;20587;-66
2023/04/19 04:50:37;;;;;;;13.37;10.57;;;12.60;99.90;;;;;;5002801;28;20211;-66
2023/04/19 04:53:03;;;;;;;13.20;10.63;;;12.60;99.90;;;;;;5004564;28;20561;-66
2023/04/19 04:55:29;;;;;;;16.53;12.00;;;12.60;99.90;;;;;;5005448;28;20181;-66
2023/04/19 04:57:55;;;;;;;13.53;10.70;;;12.60;99.90;;;;;;4998955;28;20192;-66
2023/04/19 05:00:21;;;;;;;13.03;10.60;;;12.60;99.90;;;;;;5000135;28;20205;-66
2023/04/19 05:02:47;;;;;;;16.30;11.10;;;12.60;99.90;;;;;;4997983;28;20452;-66
2023/04/19 05:05:12;;;;;;;16.20;11.23;;;12.60;99.90;;;;;;5001211;28;20471;-66
2023/04/19 05:07:38;;;;;;;12.00;10.70;;;12.60;99.90;;;;;;5000883;28;20192;-66
2023/04/19 05:10:04;;;;;;;12.40;10.17;;;12.60;99.90;;;;;;5002642;28;20201;-65
2023/04/19 05:12:30;;;;;;;11.73;9.73;;;12.60;99.90;;;;;;5002153;28;20268;-65
2023/04/19 05:14:55;;;;;;;13.40;10.20;;;12.60;99.90;;;;;;5002447;28;20589;-66
2023/04/19 05:17:21;;;;;;;13.10;10.53;;;12.60;99.90;;;;;;5001605;28;20276;-66
2023/04/19 05:19:46;;;;;;;13.43;10.63;;;12.60;99.90;;;;;;5002873;28;20185;-66
2023/04/19 05:22:12;;;;;;;14.00;10.37;;;12.60;99.90;;;;;;5002729;28;20931;-66
2023/04/19 05:24:37;;;;;;;11.10;9.90;;;12.60;99.90;;;;;;5001309;28;20189;-67
2023/04/19 05:27:03;;;;;;;13.47;11.57;;;12.60;99.90;;;;;;5001318;28;20276;-66
2023/04/19 05:29:28;;;;;;;12.87;10.77;;;12.60;99.90;;;;;;5003017;28;20189;-66
2023/04/19 05:31:54;;;;;;;16.10;10.80;;;12.60;99.90;;;;;;4998886;28;20198;-66
2023/04/19 05:34:20;;;;;;;12.73;10.97;;;12.70;99.90;;;;;;5000649;28;20660;-66
2023/04/19 05:36:45;;;;;;;14.07;10.97;;;12.70;99.90;;;;;;4996701;28;20268;-66
2023/04/19 05:39:11;;;;;;;11.70;10.17;;;12.70;99.90;;;;;;4994079;28;20194;-66
2023/04/19 05:41:36;;;;;;;16.20;11.00;;;12.70;99.90;;;;;;4998715;28;20209;-66
2023/04/19 05:44:02;;;;;;;13.00;11.10;;;12.70;99.90;;;;;;5002689;28;20705;-67
2023/04/19 05:46:28;;;;;;;14.20;11.60;;;12.70;99.90;;;;;;5015851;28;20212;-66
2023/04/19 05:48:53;;;;;;;14.77;11.60;;;12.70;99.90;;;;;;4999285;28;20232;-67
2023/04/19 05:51:19;;;;;;;17.00;10.00;;;12.80;99.90;;;;;;5000725;28;20201;-66
2023/04/19 05:53:45;;;;;;;13.53;11.10;;;12.70;99.90;;;;;;5000173;28;20538;-66
2023/04/19 05:56:10;;;;;;;16.53;10.67;;;12.80;99.90;;;;;;5001250;28;20182;-66
2023/04/19 05:58:36;;;;;;;16.50;11.40;;;12.80;99.90;;;;;;4999666;28;20436;-66
2023/04/19 06:01:03;;;;;;;14.47;11.27;;;12.80;99.90;;;;;;4999839;28;20204;-66
2023/04/19 06:03:29;;;;;;;12.27;10.60;;;12.90;99.90;;;;;;4996892;28;20632;-66
2023/04/19 06:05:54;;;;;;;14.20;11.27;;;12.90;99.90;;;;;;4997629;28;20525;-66
2023/04/19 06:08:20;;;;;;;15.50;11.40;;;12.90;99.90;;;;;;4998539;28;20464;-66
2023/04/19 06:10:48;;;;;;;14.67;11.33;;;12.90;99.90;;;;;;5000670;28;21104;-66
2023/04/19 06:13:14;;;;;;;15.70;10.50;;;12.90;99.90;;;;;;4996455;28;20265;-67
2023/04/19 06:15:40;;;;;;;12.97;10.67;;;12.90;99.90;;;;;;4998381;28;20435;-66
2023/04/19 06:18:09;;;;;;;11.23;9.40;;;13.00;99.90;;;;;;4993328;28;20443;-66
2023/04/19 06:20:38;;;;;;;13.70;11.40;;;13.00;99.90;;;;;;4995547;28;20509;-66
2023/04/19 06:23:04;;;;;;;12.60;11.30;;;13.10;99.90;;;;;;4999047;28;20451;-67
2023/04/19 06:25:30;;;;;;;16.57;10.73;;;13.10;99.90;;;;;;4997683;28;20464;-67
2023/04/19 06:27:55;;;;;;;12.80;11.30;;;13.10;99.90;;;;;;4998109;28;20440;-66
2023/04/19 06:30:21;;;;;;;12.03;10.00;;;13.20;99.90;;;;;;4998375;28;20332;-66
2023/04/19 06:32:47;;;;;;;11.13;10.00;;;13.30;99.90;;;;;;5000609;28;20182;-66
2023/04/19 06:35:13;;;;;;;12.60;10.40;;;13.30;99.90;;;;;;4995741;28;20197;-66
2023/04/19 06:37:39;;;;;;;12.87;10.20;;;13.30;99.90;;;;;;4999564;28;20535;-66
2023/04/19 06:40:07;;;;;;;11.97;9.90;;;13.30;99.90;;;;;;4998932;28;20466;-66
2023/04/19 06:42:33;;;;;;;13.60;9.93;;;13.30;99.90;;;;;;4999729;28;20250;-65
2023/04/19 06:44:59;;;;;;;12.40;10.90;;;13.30;99.90;;;;;;5000491;28;20526;-66
2023/04/19 06:47:24;;;;;;;11.50;9.70;;;13.20;99.90;;;;;;5002180;28;20472;-66
2023/04/19 06:49:50;;;;;;;12.33;10.27;;;13.20;99.90;;;;;;4999095;28;20445;-66
2023/04/19 06:52:16;;;;;;;13.00;10.63;;;13.20;99.90;;;;;;4999822;28;20698;-67
2023/04/19 06:54:41;;;;;;;12.10;10.30;;;13.20;99.90;;;;;;4997959;28;20195;-67
2023/04/19 06:57:07;;;;;;;13.00;10.20;;;13.20;99.90;;;;;;4997641;28;20613;-67
2023/04/19 06:59:32;;;;;;;12.47;10.53;;;13.20;99.90;;;;;;4998114;28;20281;-67
2023/04/19 07:01:58;;;;;;;11.63;9.57;;;13.20;99.90;;;;;;4999020;28;20259;-66
2023/04/19 07:04:25;;;;;;;13.27;11.07;;;13.20;99.90;;;;;;5002178;28;20173;-65
2023/04/19 07:06:50;;;;;;;12.77;10.03;;;13.10;99.90;;;;;;5001253;28;20287;-66
2023/04/19 07:09:16;;;;;;;12.00;9.90;;;13.20;99.90;;;;;;4999103;28;20930;-66
2023/04/19 07:11:41;;;;;;;12.57;9.70;;;13.10;99.90;;;;;;4998447;28;20208;-66
2023/04/19 07:14:07;;;;;;;18.10;10.67;;;13.20;99.90;;;;;;5010846;28;20181;-66
2023/04/19 07:16:32;;;;;;;11.67;9.70;;;13.20;99.90;;;;;;4999041;28;20178;-66
2023/04/19 07:18:58;;;;;;;13.83;11.20;;;13.20;99.90;;;;;;5000069;28;20200;-66
2023/04/19 07:21:27;;;;;;;9.67;8.67;;;13.20;99.90;;;;;;4999785;28;20489;-66
2023/04/19 07:23:53;;;;;;;12.70;10.30;;;13.20;99.90;;;;;;5001883;28;20549;-66
2023/04/19 07:26:18;;;;;;;12.83;10.67;;;13.20;99.90;;;;;;4999748;28;20517;-67
2023/04/19 07:28:44;;;;;;;11.47;10.27;;;13.20;99.90;;;;;;4997815;28;20203;-66
2023/04/19 07:31:19;;;;;;;12.33;9.87;;;13.20;99.90;;;;;;4998061;28;20201;-66
2023/04/19 07:33:44;;;;;;;13.80;9.77;;;13.30;99.90;;;;;;4999385;28;20188;-66
2023/04/19 07:36:10;;;;;;;12.50;10.27;;;13.30;99.90;;;;;;4997327;28;20498;-66
2023/04/19 07:38:36;;;;;;;12.10;9.43;;;13.40;99.90;;;;;;5000185;28;20196;-66
2023/04/19 07:41:02;;;;;;;12.50;10.33;;;13.40;99.90;;;;;;4998514;28;20209;-66
2023/04/19 07:43:29;;;;;;;13.10;9.73;;;13.40;99.90;;;;;;4998202;28;20177;-66
2023/04/19 07:45:55;;;;;;;11.30;9.47;;;13.40;99.90;;;;;;4997148;28;21032;-67
2023/04/19 07:48:20;;;;;;;11.67;10.20;;;13.50;99.90;;;;;;5000250;28;20455;-66
2023/04/19 07:50:46;;;;;;;13.50;9.80;;;13.60;99.90;;;;;;4994732;28;20226;-66
2023/04/19 07:53:11;;;;;;;11.43;9.70;;;13.60;99.90;;;;;;5000151;28;20174;-66
2023/04/19 07:55:37;;;;;;;10.60;9.50;;;13.70;99.90;;;;;;4997286;28;20735;-67
2023/04/19 07:58:03;;;;;;;13.20;9.50;;;13.80;99.90;;;;;;4998768;28;20185;-67
2023/04/19 08:00:33;;;;;;;11.43;9.87;;;13.90;99.90;;;;;;4999155;28;20205;-66
2023/04/19 08:02:59;;;;;;;12.17;9.63;;;14.00;99.90;;;;;;4999283;28;20205;-66
2023/04/19 08:05:26;;;;;;;12.53;10.20;;;14.00;99.90;;;;;;4999429;28;20495;-66
2023/04/19 08:07:52;;;;;;;12.37;9.97;;;14.20;99.90;;;;;;5016880;28;20185;-67
2023/04/19 08:10:17;;;;;;;11.13;9.40;;;14.20;99.90;;;;;;4996657;28;20451;-67
2023/04/19 08:12:43;;;;;;;13.57;10.47;;;14.30;99.90;;;;;;4998686;28;20809;-67
2023/04/19 08:15:09;;;;;;;11.60;9.43;;;14.50;99.90;;;;;;5003808;28;20217;-66
2023/04/19 08:17:35;;;;;;;22.23;17.77;;;14.50;99.90;;;;;;5001116;28;20185;-66
2023/04/19 08:20:00;;;;;;;17.47;13.20;;;14.60;99.90;;;;;;5002810;28;20585;-66
2023/04/19 08:22:26;;;;;;;17.30;14.33;;;14.70;99.90;;;;;;5003731;28;20686;-67
2023/04/19 08:24:52;;;;;;;13.03;11.03;;;14.70;99.90;;;;;;5003560;28;20267;-67
2023/04/19 08:27:19;;;;;;;13.57;11.73;;;14.80;99.90;;;;;;5002069;28;20192;-67
2023/04/19 08:29:45;;;;;;;14.57;11.50;;;14.80;99.90;;;;;;5002601;28;20459;-67
2023/04/19 08:32:11;;;;;;;10.73;9.40;;;14.80;99.90;;;;;;5004227;28;20521;-67
2023/04/19 08:34:39;;;;;;;11.30;9.97;;;14.80;99.90;;;;;;5004007;28;20468;-66
2023/04/19 08:37:06;;;;;;;11.10;9.90;;;14.80;99.90;;;;;;5003482;28;20440;-68
2023/04/19 08:39:32;;;;;;;11.87;9.90;;;14.80;99.90;;;;;;5003037;28;20478;-67
2023/04/19 08:42:09;;;;;;;11.20;9.93;;;14.80;99.90;;;;;;5003196;28;20456;-66
2023/04/19 08:44:37;;;;;;;12.43;9.13;;;14.80;99.90;;;;;;5003389;28;20454;-66
2023/04/19 08:47:04;;;;;;;10.37;8.20;;;14.80;99.90;;;;;;5003388;28;20471;-66
2023/04/19 08:49:34;;;;;;;11.00;8.77;;;14.90;99.90;;;;;;5005260;28;20535;-66
2023/04/19 08:52:00;;;;;;;11.63;10.40;;;15.00;99.90;;;;;;5002422;28;20447;-66
2023/04/19 08:54:28;;;;;;;10.50;9.30;;;15.10;99.90;;;;;;5002586;28;20412;-66
2023/04/19 08:56:55;;;;;;;10.40;9.13;;;15.30;99.90;;;;;;5001642;28;20977;-66
2023/04/19 08:59:21;;;;;;;12.13;9.30;;;15.50;99.90;;;;;;5004885;28;20420;-66
2023/04/19 09:01:46;;;;;;;10.20;9.17;;;15.60;99.90;;;;;;5002130;28;20467;-67
2023/04/19 09:04:12;;;;;;;10.03;8.47;;;15.60;99.90;;;;;;5003104;28;20228;-67
2023/04/19 09:06:39;;;;;;;10.50;8.97;;;15.70;99.90;;;;;;5001744;28;20696;-67
2023/04/19 09:09:15;;;;;;;8.43;7.60;;;15.80;99.90;;;;;;5005119;28;20184;-67
2023/04/19 09:11:41;;;;;;;11.17;8.50;;;15.80;99.90;;;;;;5018807;28;20466;-66
2023/04/19 09:14:11;;;;;;;11.93;9.00;;;15.80;99.90;;;;;;5001476;28;20439;-66
2023/04/19 09:16:38;;;;;;;10.83;8.50;;;15.80;99.90;;;;;;4997863;28;20244;-66
2023/04/19 09:19:04;;;;;;;10.30;9.20;;;15.90;99.90;;;;;;4998317;28;20497;-65
2023/04/19 09:21:31;;;;;;;10.57;9.40;;;16.00;99.90;;;;;;4998703;28;20884;-67
2023/04/19 09:23:57;;;;;;;12.83;9.40;;;16.00;99.90;;;;;;5003745;28;20444;-66
2023/04/19 09:26:23;;;;;;;11.67;9.67;;;16.10;99.90;;;;;;5000319;28;20468;-66
2023/04/19 09:29:00;;;;;;;11.90;10.40;;;16.10;99.90;;;;;;5002779;28;20933;-65
2023/04/19 09:31:27;;;;;;;9.37;8.37;;;16.10;99.90;;;;;;5010932;28;20205;-65
2023/04/19 09:33:54;;;;;;;14.47;10.20;;;16.10;99.90;;;;;;5000362;28;20428;-66
2023/04/19 09:36:32;;;;;;;11.33;9.90;;;16.20;99.90;;;;;;5002421;28;20490;-66
2023/04/19 09:38:58;;;;;;;10.53;9.13;;;16.20;99.90;;;;;;4998970;28;20439;-67
2023/04/19 09:41:25;;;;;;;11.97;8.87;;;16.30;99.90;;;;;;5002427;28;20949;-66
2023/04/19 09:43:52;;;;;;;11.80;10.33;;;16.30;99.90;;;;;;5001755;28;20850;-66
2023/04/19 09:46:35;;;;;;;11.20;9.03;;;16.10;99.90;;;;;;4997268;28;20456;-66
2023/04/19 09:49:15;;;;;;;11.13;9.90;;;16.10;99.90;;;;;;4997909;28;20748;-66
2023/04/19 09:51:45;;;;;;;11.50;10.33;;;16.10;99.90;;;;;;4999554;28;21022;-65
2023/04/19 09:54:12;;;;;;;10.37;9.33;;;16.10;99.90;;;;;;4999525;28;20466;-66
2023/04/19 09:56:38;;;;;;;10.53;9.43;;;16.30;99.90;;;;;;4998669;28;20439;-67
2023/04/19 09:59:08;;;;;;;11.27;10.00;;;16.40;99.90;;;;;;4995854;28;20439;-67
2023/04/19 10:01:35;;;;;;;9.27;8.27;;;16.60;99.90;;;;;;4995398;28;20478;-66
2023/04/19 10:04:06;;;;;;;11.43;9.07;;;16.80;99.90;;;;;;4997610;28;20816;-66
2023/04/19 10:06:33;;;;;;;9.33;8.33;;;16.90;99.90;;;;;;4997999;28;20467;-67
2023/04/19 10:09:04;;;;;;;9.83;8.80;;;16.90;99.90;;;;;;4998712;28;20516;-67
2023/04/19 10:11:40;;;;;;;8.57;7.77;;;17.00;99.90;;;;;;4997204;28;20452;-66
2023/04/19 10:14:10;;;;;;;13.20;11.57;;;17.00;99.90;;;;;;4997821;28;20657;-67
2023/04/19 10:16:37;;;;;;;12.93;11.10;;;17.10;99.90;;;;;;4997340;28;20467;-66
2023/04/19 10:19:14;;;;;;;17.90;15.23;;;17.20;99.90;;;;;;4994336;28;20451;-67
2023/04/19 10:21:46;;;;;;;11.93;9.03;;;17.40;99.90;;;;;;4995297;28;20601;-67
2023/04/19 10:24:13;;;;;;;10.17;8.70;;;17.60;99.90;;;;;;4999109;28;20466;-67
2023/04/19 10:27:03;;;;;;;9.53;8.57;;;17.70;99.90;;;;;;4997720;28;20481;-67
2023/04/19 10:29:48;;;;;;;14.77;13.23;;;17.70;99.90;;;;;;4996692;28;20474;-67
2023/04/19 10:32:13;;;;;;;10.00;8.17;;;17.90;99.90;;;;;;4995829;28;20518;-67
2023/04/19 10:34:39;;;;;;;12.43;9.50;;;17.90;99.90;;;;;;4996751;28;20916;-67
2023/04/19 10:37:09;;;;;;;13.80;8.47;;;17.90;99.90;;;;;;4993641;28;20455;-67
2023/04/19 10:39:40;;;;;;;9.97;8.93;;;17.90;99.90;;;;;;4992976;28;20216;-67
2023/04/19 10:42:06;;;;;;;12.10;9.00;;;17.90;99.90;;;;;;4993687;28;20811;-66
2023/04/19 10:44:32;;;;;;;10.00;8.83;;;17.80;99.90;;;;;;4994605;28;20439;-67
2023/04/19 10:47:00;;;;;;;8.97;8.10;;;17.70;99.90;;;;;;4997658;28;20213;-68
2023/04/19 10:49:30;;;;;;;12.80;10.60;;;17.70;99.90;;;;;;4994305;28;20432;-65
2023/04/19 10:51:56;;;;;;;10.60;9.47;;;17.70;99.90;;;;;;5011449;28;20460;-65
2023/04/19 10:54:30;;;;;;;9.63;8.63;;;17.70;99.90;;;;;;4994077;28;20526;-66
2023/04/19 10:57:01;;;;;;;10.63;8.40;;;17.80;99.90;;;;;;4995382;28;20448;-65
2023/04/19 10:59:31;;;;;;;11.20;8.63;;;17.80;99.90;;;;;;4997456;28;20455;-66
2023/04/19 11:01:59;;;;;;;10.57;8.20;;;17.90;99.90;;;;;;4994218;28;20494;-66
2023/04/19 11:04:31;;;;;;;9.10;8.20;;;18.00;99.90;;;;;;4996019;28;20789;-66
2023/04/19 11:07:00;;;;;;;10.30;8.33;;;18.00;99.90;;;;;;4996368;28;20892;-66
2023/04/19 11:09:37;;;;;;;9.47;8.47;;;18.00;99.90;;;;;;4997578;28;20523;-66
2023/04/19 11:12:03;;;;;;;10.13;8.60;;;17.90;99.90;;;;;;4998389;28;20675;-67
2023/04/19 11:14:32;;;;;;;10.07;7.63;;;17.80;99.90;;;;;;4993750;28;20440;-67
2023/04/19 11:16:58;;;;;;;9.03;8.13;;;17.70;99.90;;;;;;4995652;28;20749;-66
2023/04/19 11:19:23;;;;;;;8.73;7.93;;;17.60;99.90;;;;;;4994460;28;20472;-67
2023/04/19 11:21:49;;;;;;;9.90;8.53;;;17.50;99.90;;;;;;4997459;28;20579;-66
2023/04/19 11:24:17;;;;;;;11.50;8.40;;;17.40;99.90;;;;;;4997751;28;20183;-67
2023/04/19 11:26:47;;;;;;;10.30;8.70;;;17.40;99.90;;;;;;4993520;28;20228;-67
2023/04/19 11:29:13;;;;;;;9.40;8.50;;;17.30;99.90;;;;;;4994592;28;20514;-67
2023/04/19 11:31:38;;;;;;;11.53;9.50;;;17.10;99.90;;;;;;4997343;28;20905;-67
2023/04/19 11:34:04;;;;;;;11.20;8.70;;;16.90;99.90;;;;;;4999028;28;20663;-67
2023/04/19 11:36:35;;;;;;;11.07;8.97;;;16.80;99.90;;;;;;4995063;28;20181;-66
2023/04/19 11:39:03;;;;;;;10.17;9.07;;;16.70;99.90;;;;;;5012831;28;20412;-67
2023/04/19 11:41:29;;;;;;;9.37;8.47;;;16.70;99.90;;;;;;5012509;28;20456;-66
2023/04/19 11:43:54;;;;;;;10.20;9.07;;;16.60;99.90;;;;;;4995305;28;21012;-69
2023/04/19 11:46:20;;;;;;;12.23;9.50;;;16.50;99.90;;;;;;4988818;28;20213;-66
2023/04/19 11:48:53;;;;;;;9.97;8.90;;;16.50;99.90;;;;;;5000188;28;20525;-67
2023/04/19 11:51:19;;;;;;;14.33;8.60;;;16.40;99.90;;;;;;4996490;28;20220;-68
2023/04/19 11:53:45;;;;;;;10.13;8.20;;;16.30;99.90;;;;;;4997251;28;20432;-67
2023/04/19 11:56:11;;;;;;;10.13;9.10;;;16.30;99.90;;;;;;4999840;28;20454;-68
2023/04/19 11:58:36;;;;;;;9.60;7.70;;;16.20;99.90;;;;;;5016934;28;20852;-67
2023/04/19 12:01:09;;;;;;;21.40;9.23;;;16.20;99.90;;;;;;4999140;28;20263;-68
2023/04/19 12:03:52;;;;;;;9.57;8.53;;;16.10;99.90;;;;;;5015174;28;20201;-68
2023/04/19 12:06:18;;;;;;;10.80;8.60;;;16.10;99.90;;;;;;4995314;28;20475;-68
2023/04/19 12:08:48;;;;;;;12.20;10.27;;;16.10;99.90;;;;;;4996144;28;20455;-67
2023/04/19 12:11:17;;;;;;;12.17;9.13;;;16.10;99.90;;;;;;4997251;28;20201;-68
2023/04/19 12:13:43;;;;;;;10.30;8.47;;;16.10;99.90;;;;;;4997516;28;20443;-67
2023/04/19 12:16:10;;;;;;;11.50;10.40;;;16.10;99.90;;;;;;5000021;28;20439;-68
2023/04/19 12:18:48;;;;;;;10.43;8.93;;;16.00;99.90;;;;;;5000887;28;20189;-68
2023/04/19 12:21:31;;;;;;;9.77;8.70;;;16.00;99.90;;;;;;5002316;28;20460;-69
2023/04/19 12:23:59;;;;;;;16.93;9.93;;;16.00;99.90;;;;;;4998680;28;20443;-68
2023/04/19 12:26:27;;;;;;;12.25;9.30;;;16.00;99.90;;;;;;5000859;28;20469;-69
2023/04/19 12:28:56;;;;;;;10.53;9.47;;;15.90;99.90;;;;;;5001579;28;20197;-69